Time;durP1;ratioP1;P1;durP2;ratioP2;P2;SDS_P1;SDS_P2;PMS_P1;PMS_P2;Temp;Humidity;BMP_temperature;BMP_pressure;BME280_temperature;BME280_humidity;BME280_pressure;Samples;Min_cycle;Max_cycle;Signal;HPM_P1;HPM_P2
2024/04/25 00:01:04;;;;;;;1.00;0.60;;;;;;;;;;5384400;26;84447;-49
2024/04/25 00:03:29;;;;;;;1.10;0.50;;;;;;;;;;5382739;26;85416;-47
2024/04/25 00:05:54;;;;;;;0.43;0.43;;;;;;;;;;5384995;26;85767;-47
2024/04/25 00:08:19;;;;;;;0.10;0.03;;;;;;;;;;5396185;26;86263;-46
2024/04/25 00:10:49;;;;;;;0.50;0.23;;;;;;;;;;5377162;26;87838;-53
2024/04/25 00:13:14;;;;;;;1.60;0.60;;;;;;;;;;5381499;26;85755;-46
2024/04/25 00:15:39;;;;;;;0.30;0.30;;;;;;;;;;5390129;26;85091;-48
2024/04/25 00:18:05;;;;;;;2.50;0.40;;;;;;;;;;5397898;26;85393;-47
2024/04/25 00:20:30;;;;;;;0.40;0.40;;;;;;;;;;5365984;26;85429;-47
2024/04/25 00:22:55;;;;;;;2.40;0.30;;;;;;;;;;5375767;26;85695;-47
2024/04/25 00:25:20;;;;;;;0.33;0.33;;;;;;;;;;5381995;26;84872;-49
2024/04/25 00:27:46;;;;;;;0.50;0.20;;;;;;;;;;5388090;26;86669;-47
2024/04/25 00:30:12;;;;;;;0.47;0.27;;;;;;;;;;5394400;25;85681;-47
2024/04/25 00:32:37;;;;;;;0.17;0.13;;;;;;;;;;5380171;26;86611;-49
2024/04/25 00:35:02;;;;;;;1.15;0.45;;;;;;;;;;5391087;26;85394;-47
2024/04/25 00:37:28;;;;;;;0.32;0.32;;;;;;;;;;5390344;26;85424;-47
2024/04/25 00:39:55;;;;;;;3.42;0.57;;;;;;;;;;5390047;26;85278;-45
2024/04/25 00:42:20;;;;;;;0.30;0.30;;;;;;;;;;5381657;26;85591;-47
2024/04/25 00:44:46;;;;;;;0.83;0.30;;;;;;;;;;5392149;26;85024;-46
2024/04/25 00:47:12;;;;;;;0.50;0.35;;;;;;;;;;5377978;26;84958;-45
2024/04/25 00:49:38;;;;;;;1.27;0.60;;;;;;;;;;5375668;26;84710;-47
2024/04/25 00:52:03;;;;;;;1.40;0.30;;;;;;;;;;5377465;26;86308;-50
2024/04/25 00:54:29;;;;;;;0.63;0.50;;;;;;;;;;5379552;26;85252;-47
2024/04/25 00:56:54;;;;;;;1.70;0.20;;;;;;;;;;5377463;26;85976;-44
2024/04/25 00:59:22;;;;;;;0.60;0.30;;;;;;;;;;5384036;26;85811;-49
2024/04/25 01:01:49;;;;;;;0.45;0.40;;;;;;;;;;5379698;26;89060;-44
2024/04/25 01:04:14;;;;;;;0.10;0.10;;;;;;;;;;5394910;26;85734;-46
2024/04/25 01:06:40;;;;;;;1.00;0.60;;;;;;;;;;5390758;26;85846;-47
2024/04/25 01:09:07;;;;;;;0.30;0.30;;;;;;;;;;5389259;26;85661;-46
2024/04/25 01:11:33;;;;;;;3.22;0.60;;;;;;;;;;5380144;26;85772;-51
2024/04/25 01:13:58;;;;;;;0.22;0.22;;;;;;;;;;5385641;26;84324;-50
2024/04/25 01:16:24;;;;;;;0.30;0.10;;;;;;;;;;5380073;26;86577;-49
2024/04/25 01:18:49;;;;;;;0.30;0.17;;;;;;;;;;5375746;26;85158;-47
2024/04/25 01:21:14;;;;;;;0.40;0.30;;;;;;;;;;5401869;25;86040;-47
2024/04/25 01:23:41;;;;;;;0.70;0.40;;;;;;;;;;5380618;26;86487;-45
2024/04/25 01:26:07;;;;;;;0.50;0.45;;;;;;;;;;5385669;26;85266;-48
2024/04/25 01:28:33;;;;;;;0.10;0.10;;;;;;;;;;5380643;26;85404;-51
2024/04/25 01:30:58;;;;;;;0.90;0.30;;;;;;;;;;5394665;26;85485;-47
2024/04/25 01:33:27;;;;;;;1.03;0.40;;;;;;;;;;5380401;26;85239;-45
2024/04/25 01:35:52;;;;;;;0.85;0.25;;;;;;;;;;5388978;26;86217;-44
2024/04/25 01:38:18;;;;;;;3.63;0.40;;;;;;;;;;5391433;26;85158;-44
2024/04/25 01:40:43;;;;;;;0.50;0.28;;;;;;;;;;5386122;26;85096;-48
2024/04/25 01:43:09;;;;;;;0.30;0.30;;;;;;;;;;5373385;26;86150;-44
2024/04/25 01:45:34;;;;;;;0.68;0.50;;;;;;;;;;5374552;26;86219;-46
2024/04/25 01:47:59;;;;;;;0.63;0.20;;;;;;;;;;5377068;26;86478;-48
2024/04/25 01:50:25;;;;;;;0.30;0.30;;;;;;;;;;5390118;25;85204;-45
2024/04/25 01:52:50;;;;;;;0.07;0.07;;;;;;;;;;5378017;26;86383;-46
2024/04/25 01:55:15;;;;;;;0.23;0.20;;;;;;;;;;5389329;26;85872;-49
2024/04/25 01:57:40;;;;;;;2.70;0.20;;;;;;;;;;5375936;26;85478;-47
2024/04/25 02:00:06;;;;;;;0.30;0.30;;;;;;;;;;5385272;25;87070;-52
2024/04/25 02:02:31;;;;;;;0.70;0.47;;;;;;;;;;5383463;26;85582;-48
2024/04/25 02:04:56;;;;;;;0.20;0.20;;;;;;;;;;5393688;26;85016;-47
2024/04/25 02:07:22;;;;;;;0.00;0.00;;;;;;;;;;5380867;26;85524;-45
2024/04/25 02:09:47;;;;;;;0.10;0.10;;;;;;;;;;5369810;26;86404;-47
2024/04/25 02:12:12;;;;;;;0.40;0.30;;;;;;;;;;5383656;26;86200;-49
2024/04/25 02:14:37;;;;;;;1.10;0.30;;;;;;;;;;5383999;26;85166;-43
2024/04/25 02:17:03;;;;;;;1.10;0.50;;;;;;;;;;5375557;26;85710;-43
2024/04/25 02:19:28;;;;;;;0.97;0.40;;;;;;;;;;5376010;26;85265;-44
2024/04/25 02:27:21;;;;;;;0.10;0.10;;;;;;;;;;5382952;26;85463;-46
2024/04/25 02:29:46;;;;;;;1.80;0.10;;;;;;;;;;5386863;26;85481;-43
2024/04/25 02:32:12;;;;;;;0.20;0.20;;;;;;;;;;5371180;26;86046;-46
2024/04/25 02:34:37;;;;;;;0.20;0.20;;;;;;;;;;5385730;26;87067;-46
2024/04/25 02:37:02;;;;;;;0.20;0.20;;;;;;;;;;5392196;26;85284;-42
2024/04/25 02:39:28;;;;;;;0.07;0.07;;;;;;;;;;5381496;26;85478;-43
2024/04/25 02:41:53;;;;;;;0.50;0.33;;;;;;;;;;5392841;26;85683;-44
2024/04/25 02:44:18;;;;;;;0.40;0.40;;;;;;;;;;5393073;26;85306;-44
2024/04/25 02:46:43;;;;;;;0.40;0.30;;;;;;;;;;5396928;25;85641;-42
2024/04/25 02:49:08;;;;;;;0.20;0.20;;;;;;;;;;5382798;25;85627;-45
2024/04/25 02:51:34;;;;;;;0.27;0.17;;;;;;;;;;5391295;26;85067;-45
2024/04/25 02:53:59;;;;;;;0.30;0.10;;;;;;;;;;5368929;26;85144;-45
2024/04/25 02:56:24;;;;;;;0.95;0.25;;;;;;;;;;5370881;26;85543;-42
2024/04/25 02:58:50;;;;;;;0.00;0.00;;;;;;;;;;5377530;26;87748;-44
2024/04/25 03:01:15;;;;;;;0.20;0.10;;;;;;;;;;5379111;26;89284;-42
2024/04/25 03:03:40;;;;;;;0.30;0.17;;;;;;;;;;5378489;26;85887;-43
2024/04/25 03:06:06;;;;;;;0.40;0.30;;;;;;;;;;5378237;26;86440;-42
2024/04/25 03:08:31;;;;;;;0.60;0.40;;;;;;;;;;5386270;26;85563;-43
2024/04/25 03:11:01;;;;;;;0.50;0.50;;;;;;;;;;5381861;26;85805;-42
2024/04/25 03:13:26;;;;;;;0.20;0.20;;;;;;;;;;5383942;26;86333;-43
2024/04/25 03:15:51;;;;;;;0.50;0.47;;;;;;;;;;5365951;26;84545;-44
2024/04/25 03:18:16;;;;;;;0.40;0.30;;;;;;;;;;5385564;26;85144;-46
2024/04/25 03:20:42;;;;;;;0.30;0.30;;;;;;;;;;5386948;25;85922;-48
2024/04/25 03:23:07;;;;;;;0.43;0.27;;;;;;;;;;5389259;26;87495;-44
2024/04/25 03:25:32;;;;;;;1.27;0.27;;;;;;;;;;5383941;26;85188;-48
2024/04/25 03:27:58;;;;;;;2.20;0.47;;;;;;;;;;5375035;26;85715;-46
2024/04/25 03:30:23;;;;;;;1.50;0.30;;;;;;;;;;5385722;25;85426;-49
2024/04/25 03:32:48;;;;;;;0.40;0.40;;;;;;;;;;5395896;25;85075;-47
2024/04/25 03:35:13;;;;;;;1.40;0.30;;;;;;;;;;5377407;26;87319;-43
2024/04/25 03:37:39;;;;;;;1.40;0.50;;;;;;;;;;5375658;26;85498;-44
2024/04/25 03:40:04;;;;;;;0.10;0.10;;;;;;;;;;5385791;26;85094;-43
2024/04/25 03:42:29;;;;;;;0.90;0.30;;;;;;;;;;5394929;25;85644;-47
2024/04/25 03:44:54;;;;;;;1.70;0.30;;;;;;;;;;5405601;25;86012;-48
2024/04/25 03:47:22;;;;;;;0.93;0.23;;;;;;;;;;5382799;26;85834;-43
2024/04/25 03:49:48;;;;;;;0.30;0.20;;;;;;;;;;5372384;26;85261;-42
2024/04/25 03:52:13;;;;;;;0.70;0.30;;;;;;;;;;5395140;26;85247;-47
2024/04/25 03:54:38;;;;;;;0.10;0.10;;;;;;;;;;5384708;26;86409;-44
2024/04/25 03:57:03;;;;;;;1.40;0.10;;;;;;;;;;5393738;26;85804;-43
2024/04/25 03:59:29;;;;;;;1.13;0.30;;;;;;;;;;5382445;25;85727;-45
2024/04/25 04:01:57;;;;;;;5.77;0.30;;;;;;;;;;5386053;26;85470;-47
2024/04/25 04:04:23;;;;;;;0.25;0.15;;;;;;;;;;5377987;26;84438;-44
2024/04/25 04:06:48;;;;;;;0.10;0.10;;;;;;;;;;5379339;26;85144;-45
2024/04/25 04:09:13;;;;;;;0.20;0.20;;;;;;;;;;5386829;25;85163;-46
2024/04/25 04:11:40;;;;;;;0.10;0.10;;;;;;;;;;5389311;26;86139;-44
2024/04/25 04:14:05;;;;;;;0.10;0.10;;;;;;;;;;5368221;26;86030;-47
2024/04/25 04:16:30;;;;;;;0.10;0.10;;;;;;;;;;5378246;26;85673;-47
2024/04/25 04:18:56;;;;;;;0.10;0.08;;;;;;;;;;5390906;26;85859;-45
2024/04/25 04:21:21;;;;;;;0.50;0.40;;;;;;;;;;5374290;26;85225;-43
2024/04/25 04:23:47;;;;;;;1.40;0.20;;;;;;;;;;5373087;26;85380;-45
2024/04/25 04:26:13;;;;;;;0.43;0.33;;;;;;;;;;5354355;26;85454;-45
2024/04/25 04:28:38;;;;;;;0.10;0.10;;;;;;;;;;5385767;26;85044;-46
2024/04/25 04:31:03;;;;;;;0.23;0.23;;;;;;;;;;5377765;26;87095;-54
2024/04/25 04:33:29;;;;;;;0.50;0.30;;;;;;;;;;5381388;26;85710;-44
2024/04/25 04:35:55;;;;;;;0.40;0.30;;;;;;;;;;5394276;26;86418;-44
2024/04/25 04:38:20;;;;;;;0.20;0.20;;;;;;;;;;5397093;26;86612;-46
2024/04/25 04:40:45;;;;;;;0.20;0.10;;;;;;;;;;5374359;26;85530;-42
2024/04/25 04:43:11;;;;;;;1.50;0.30;;;;;;;;;;5382803;26;85081;-43
2024/04/25 04:45:36;;;;;;;0.10;0.10;;;;;;;;;;5445038;25;86187;-44
2024/04/25 04:48:01;;;;;;;0.23;0.23;;;;;;;;;;5379852;26;85080;-44
2024/04/25 04:50:26;;;;;;;0.40;0.20;;;;;;;;;;5387642;26;85260;-42
2024/04/25 04:52:51;;;;;;;1.00;0.27;;;;;;;;;;5382126;26;85375;-46
2024/04/25 04:55:17;;;;;;;1.60;0.40;;;;;;;;;;5386070;26;85054;-44
2024/04/25 04:57:42;;;;;;;2.83;0.30;;;;;;;;;;5382012;26;85129;-45
2024/04/25 05:00:08;;;;;;;1.83;0.40;;;;;;;;;;5384962;26;87291;-42
2024/04/25 05:02:33;;;;;;;2.17;0.73;;;;;;;;;;5392769;26;85222;-44
2024/04/25 05:04:58;;;;;;;0.87;0.70;;;;;;;;;;5381601;26;85358;-43
2024/04/25 05:07:23;;;;;;;1.20;1.10;;;;;;;;;;5382149;26;86324;-44
2024/04/25 05:09:49;;;;;;;1.20;1.10;;;;;;;;;;5395105;25;85542;-45
2024/04/25 05:12:14;;;;;;;0.80;0.80;;;;;;;;;;5384085;26;85396;-44
2024/04/25 05:14:39;;;;;;;1.07;0.90;;;;;;;;;;5383044;26;86292;-46
2024/04/25 05:17:05;;;;;;;1.90;1.20;;;;;;;;;;5386650;26;84802;-45
2024/04/25 05:19:30;;;;;;;0.63;0.63;;;;;;;;;;5377957;26;85988;-43
2024/04/25 05:21:56;;;;;;;0.60;0.60;;;;;;;;;;5385079;26;85372;-46
2024/04/25 05:24:21;;;;;;;1.50;0.70;;;;;;;;;;5378818;26;86226;-46
2024/04/25 05:26:46;;;;;;;0.60;0.60;;;;;;;;;;5377367;26;86210;-42
2024/04/25 05:29:12;;;;;;;1.00;0.80;;;;;;;;;;5380194;25;85525;-46
2024/04/25 05:31:37;;;;;;;0.83;0.63;;;;;;;;;;5384149;25;85980;-43
2024/04/25 05:34:02;;;;;;;0.73;0.73;;;;;;;;;;5387638;26;85862;-45
2024/04/25 05:36:27;;;;;;;2.03;1.10;;;;;;;;;;5380474;26;85375;-45
2024/04/25 05:38:53;;;;;;;0.80;0.50;;;;;;;;;;5383276;26;85555;-41
2024/04/25 05:41:18;;;;;;;0.30;0.30;;;;;;;;;;5392384;25;84366;-43
2024/04/25 05:43:43;;;;;;;0.70;0.50;;;;;;;;;;5385412;26;85181;-44
2024/04/25 05:46:09;;;;;;;4.80;0.30;;;;;;;;;;5390222;26;86228;-45
2024/04/25 05:48:37;;;;;;;1.27;0.60;;;;;;;;;;5377231;25;87468;-47
2024/04/25 05:51:02;;;;;;;2.47;0.68;;;;;;;;;;5392775;26;86410;-45
2024/04/25 05:53:27;;;;;;;3.33;0.50;;;;;;;;;;5388853;25;84906;-45
2024/04/25 05:55:53;;;;;;;1.20;0.50;;;;;;;;;;5395302;26;85687;-45
2024/04/25 05:58:18;;;;;;;0.85;0.32;;;;;;;;;;5385166;26;85517;-46
2024/04/25 06:00:43;;;;;;;2.33;0.93;;;;;;;;;;5382021;26;85330;-45
2024/04/25 06:03:08;;;;;;;1.70;0.37;;;;;;;;;;5383609;26;85499;-45
2024/04/25 06:05:34;;;;;;;0.63;0.57;;;;;;;;;;5386466;26;84444;-47
2024/04/25 06:07:59;;;;;;;0.40;0.30;;;;;;;;;;5390252;26;85095;-46
2024/04/25 06:10:24;;;;;;;4.13;0.50;;;;;;;;;;5395007;25;84937;-42
2024/04/25 06:12:49;;;;;;;1.90;0.50;;;;;;;;;;5395408;26;85973;-44
2024/04/25 06:15:15;;;;;;;2.37;0.50;;;;;;;;;;5385403;26;85330;-43
2024/04/25 06:17:43;;;;;;;7.63;0.43;;;;;;;;;;5385457;26;86891;-42
2024/04/25 06:20:11;;;;;;;0.80;0.40;;;;;;;;;;5392000;26;86102;-43
2024/04/25 06:22:37;;;;;;;0.80;0.30;;;;;;;;;;5391871;26;85082;-45
2024/04/25 06:25:03;;;;;;;0.30;0.30;;;;;;;;;;5380844;26;85437;-45
2024/04/25 06:27:28;;;;;;;0.60;0.35;;;;;;;;;;5380216;26;85436;-44
2024/04/25 06:29:54;;;;;;;4.10;0.40;;;;;;;;;;5383829;26;86512;-42
2024/04/25 06:32:19;;;;;;;1.63;0.50;;;;;;;;;;5381041;26;85842;-43
2024/04/25 06:34:45;;;;;;;1.10;0.40;;;;;;;;;;5384737;26;85224;-41
2024/04/25 06:37:10;;;;;;;1.50;0.30;;;;;;;;;;5381413;26;86486;-42
2024/04/25 06:39:35;;;;;;;0.47;0.32;;;;;;;;;;5384233;26;85502;-42
2024/04/25 06:42:01;;;;;;;0.17;0.10;;;;;;;;;;5385084;26;86184;-43
2024/04/25 06:44:26;;;;;;;0.20;0.20;;;;;;;;;;5383267;26;85532;-42
2024/04/25 06:46:51;;;;;;;2.93;0.27;;;;;;;;;;5381578;26;85788;-42
2024/04/25 06:49:17;;;;;;;0.40;0.40;;;;;;;;;;5381887;26;85305;-45
2024/04/25 06:51:42;;;;;;;1.43;0.23;;;;;;;;;;5385655;26;85314;-42
2024/04/25 06:54:07;;;;;;;3.30;0.40;;;;;;;;;;5380763;26;84254;-45
2024/04/25 06:56:33;;;;;;;0.40;0.20;;;;;;;;;;5382416;26;85271;-43
2024/04/25 06:58:58;;;;;;;0.20;0.13;;;;;;;;;;5385841;26;86232;-45
2024/04/25 07:01:23;;;;;;;0.80;0.50;;;;;;;;;;5383105;26;86638;-42
2024/04/25 07:03:49;;;;;;;0.73;0.23;;;;;;;;;;5390442;26;85876;-46
2024/04/25 07:06:14;;;;;;;0.40;0.40;;;;;;;;;;5382483;26;85303;-43
2024/04/25 07:08:39;;;;;;;2.40;0.53;;;;;;;;;;5382269;26;87033;-43
2024/04/25 07:11:05;;;;;;;0.20;0.20;;;;;;;;;;5384203;26;87059;-46
2024/04/25 07:13:30;;;;;;;0.10;0.10;;;;;;;;;;5394686;25;85426;-42
2024/04/25 07:15:55;;;;;;;1.67;0.20;;;;;;;;;;5396168;26;87476;-44
2024/04/25 07:18:21;;;;;;;2.40;0.30;;;;;;;;;;5387540;26;85574;-41
2024/04/25 07:20:46;;;;;;;0.10;0.10;;;;;;;;;;5390702;25;85650;-44
2024/04/25 07:23:11;;;;;;;0.20;0.20;;;;;;;;;;5389330;26;85627;-43
2024/04/25 07:25:37;;;;;;;0.60;0.30;;;;;;;;;;5398764;26;86640;-45
2024/04/25 07:28:03;;;;;;;0.60;0.40;;;;;;;;;;5384799;26;87014;-47
2024/04/25 07:30:28;;;;;;;2.20;0.40;;;;;;;;;;5385762;26;85182;-46
2024/04/25 07:32:53;;;;;;;0.20;0.20;;;;;;;;;;5388380;26;85222;-42
2024/04/25 07:35:18;;;;;;;0.33;0.20;;;;;;;;;;5397426;26;87969;-42
2024/04/25 07:37:44;;;;;;;0.40;0.40;;;;;;;;;;5380912;26;85513;-43
2024/04/25 07:40:09;;;;;;;1.87;0.30;;;;;;;;;;5384271;26;85104;-43
2024/04/25 07:42:34;;;;;;;2.30;0.50;;;;;;;;;;5384886;26;84579;-43
2024/04/25 07:45:01;;;;;;;4.13;0.57;;;;;;;;;;5389065;26;85710;-42
2024/04/25 07:47:26;;;;;;;0.90;0.30;;;;;;;;;;5398172;26;86438;-43
2024/04/25 07:49:52;;;;;;;2.40;0.45;;;;;;;;;;5392162;25;86866;-43
2024/04/25 07:52:18;;;;;;;3.15;0.35;;;;;;;;;;5383076;26;85351;-44
2024/04/25 07:54:43;;;;;;;0.30;0.30;;;;;;;;;;5384970;26;85138;-45
2024/04/25 07:57:08;;;;;;;2.03;0.40;;;;;;;;;;5381430;26;88861;-47
2024/04/25 07:59:34;;;;;;;0.40;0.30;;;;;;;;;;5391229;26;85710;-47
2024/04/25 08:01:59;;;;;;;0.10;0.10;;;;;;;;;;5384542;26;86663;-43
2024/04/25 08:04:24;;;;;;;0.15;0.15;;;;;;;;;;5400484;26;85032;-44
2024/04/25 08:06:50;;;;;;;2.05;0.45;;;;;;;;;;5393067;26;84682;-47
2024/04/25 08:09:15;;;;;;;1.20;0.70;;;;;;;;;;5388547;26;85186;-41
2024/04/25 08:11:40;;;;;;;1.10;0.20;;;;;;;;;;5380664;26;85171;-44
2024/04/25 08:14:06;;;;;;;0.50;0.43;;;;;;;;;;5377486;26;85973;-45
2024/04/25 08:16:32;;;;;;;1.07;0.63;;;;;;;;;;5388136;26;86864;-47
2024/04/25 08:18:57;;;;;;;0.45;0.35;;;;;;;;;;5408766;25;85026;-43
2024/04/25 08:21:22;;;;;;;0.20;0.20;;;;;;;;;;5386532;26;85445;-45
2024/04/25 08:23:47;;;;;;;1.30;0.30;;;;;;;;;;5372503;26;85547;-42
2024/04/25 08:26:13;;;;;;;0.90;0.50;;;;;;;;;;5379624;26;85417;-41
2024/04/25 08:28:39;;;;;;;4.18;0.50;;;;;;;;;;5385858;26;85250;-46
2024/04/25 08:31:04;;;;;;;0.50;0.50;;;;;;;;;;5387872;25;84813;-46
2024/04/25 08:33:29;;;;;;;0.07;0.07;;;;;;;;;;5377329;26;85559;-41
2024/04/25 08:35:55;;;;;;;0.20;0.20;;;;;;;;;;5380813;26;85727;-44
2024/04/25 08:38:21;;;;;;;0.22;0.22;;;;;;;;;;5379252;26;86101;-45
2024/04/25 08:40:50;;;;;;;0.80;0.60;;;;;;;;;;5379449;26;86515;-41
2024/04/25 08:43:16;;;;;;;0.90;0.40;;;;;;;;;;5389493;26;85745;-42
2024/04/25 08:45:41;;;;;;;1.13;0.67;;;;;;;;;;5390672;25;85656;-43
2024/04/25 08:48:11;;;;;;;0.13;0.13;;;;;;;;;;5381967;26;85233;-44
2024/04/25 08:50:36;;;;;;;0.95;0.60;;;;;;;;;;5386529;25;85487;-42
2024/04/25 08:53:02;;;;;;;0.30;0.20;;;;;;;;;;5377513;25;85676;-42
2024/04/25 08:55:27;;;;;;;0.25;0.20;;;;;;;;;;5374373;26;85080;-43
2024/04/25 08:57:53;;;;;;;3.28;0.70;;;;;;;;;;5378452;26;85977;-42
2024/04/25 09:00:18;;;;;;;0.13;0.13;;;;;;;;;;5391598;26;85110;-43
2024/04/25 09:02:45;;;;;;;2.20;0.30;;;;;;;;;;5390838;26;86036;-42
2024/04/25 09:05:11;;;;;;;5.13;0.43;;;;;;;;;;5384285;26;85470;-41
2024/04/25 09:07:37;;;;;;;0.50;0.28;;;;;;;;;;5380372;26;85233;-42
2024/04/25 09:10:03;;;;;;;0.40;0.30;;;;;;;;;;5376706;26;85272;-41
2024/04/25 09:12:31;;;;;;;3.37;0.50;;;;;;;;;;5382029;26;85203;-43
2024/04/25 09:14:57;;;;;;;0.57;0.55;;;;;;;;;;5390033;26;85547;-41
2024/04/25 09:17:22;;;;;;;0.60;0.57;;;;;;;;;;5387723;26;85074;-42
2024/04/25 09:19:47;;;;;;;1.17;0.40;;;;;;;;;;5384547;26;84454;-43
2024/04/25 09:22:13;;;;;;;1.00;0.43;;;;;;;;;;5382570;26;85256;-41
2024/04/25 09:24:38;;;;;;;0.70;0.40;;;;;;;;;;5386467;26;85140;-44
2024/04/25 09:27:03;;;;;;;0.47;0.47;;;;;;;;;;5388157;26;86311;-43
2024/04/25 09:29:30;;;;;;;1.40;0.20;;;;;;;;;;5374080;26;85124;-41
2024/04/25 09:31:55;;;;;;;0.90;0.43;;;;;;;;;;5390839;26;86045;-43
2024/04/25 09:34:21;;;;;;;1.30;0.40;;;;;;;;;;5373869;26;85646;-45
2024/04/25 09:36:47;;;;;;;2.72;0.63;;;;;;;;;;5388914;26;85578;-42
2024/04/25 09:39:12;;;;;;;0.50;0.40;;;;;;;;;;5385154;26;85605;-43
2024/04/25 09:41:38;;;;;;;0.20;0.20;;;;;;;;;;5386107;26;85844;-43
2024/04/25 09:44:03;;;;;;;0.40;0.40;;;;;;;;;;5380600;26;85705;-43
2024/04/25 09:46:32;;;;;;;0.70;0.60;;;;;;;;;;5382153;26;85608;-45
2024/04/25 09:49:01;;;;;;;1.40;0.60;;;;;;;;;;5379332;26;85445;-46
2024/04/25 09:51:33;;;;;;;0.20;0.10;;;;;;;;;;5388364;25;86171;-41
2024/04/25 09:53:59;;;;;;;0.33;0.33;;;;;;;;;;5387005;26;85195;-42
2024/04/25 09:56:28;;;;;;;0.22;0.20;;;;;;;;;;5386672;26;86223;-46
2024/04/25 09:59:01;;;;;;;1.17;0.37;;;;;;;;;;5378391;26;85551;-61
2024/04/25 10:01:27;;;;;;;0.65;0.47;;;;;;;;;;5378734;26;85349;-43
2024/04/25 10:03:54;;;;;;;0.28;0.28;;;;;;;;;;5382854;26;86414;-48
2024/04/25 10:06:19;;;;;;;0.20;0.20;;;;;;;;;;5386051;26;85682;-46
2024/04/25 10:08:44;;;;;;;0.47;0.27;;;;;;;;;;5381866;26;84416;-48
2024/04/25 10:11:13;;;;;;;0.70;0.40;;;;;;;;;;5377004;26;86866;-45
2024/04/25 10:13:51;;;;;;;0.20;0.20;;;;;;;;;;5381411;26;85100;-45
2024/04/25 10:16:16;;;;;;;0.20;0.20;;;;;;;;;;5390279;26;86804;-46
2024/04/25 10:18:49;;;;;;;0.03;0.03;;;;;;;;;;5383641;26;85234;-49
2024/04/25 10:21:14;;;;;;;0.30;0.30;;;;;;;;;;5381876;26;85236;-43
2024/04/25 10:23:39;;;;;;;0.70;0.23;;;;;;;;;;5382963;26;85153;-46
2024/04/25 10:26:14;;;;;;;0.40;0.30;;;;;;;;;;5382172;26;85049;-44
2024/04/25 10:28:39;;;;;;;0.45;0.30;;;;;;;;;;5381528;26;85621;-44
2024/04/25 10:31:05;;;;;;;0.20;0.20;;;;;;;;;;5381453;26;85510;-46
2024/04/25 10:33:30;;;;;;;0.30;0.30;;;;;;;;;;5385657;26;85647;-46
2024/04/25 10:36:01;;;;;;;0.17;0.17;;;;;;;;;;5392679;26;86294;-42
2024/04/25 10:38:27;;;;;;;0.40;0.30;;;;;;;;;;5383813;26;85040;-45
2024/04/25 10:40:52;;;;;;;3.67;0.33;;;;;;;;;;5396500;25;86237;-43
2024/04/25 10:43:17;;;;;;;2.10;0.50;;;;;;;;;;5389403;26;85115;-44
2024/04/25 10:45:43;;;;;;;1.10;0.33;;;;;;;;;;5387336;26;85210;-43
2024/04/25 10:48:08;;;;;;;0.30;0.20;;;;;;;;;;5383810;26;85778;-43
2024/04/25 10:50:34;;;;;;;0.50;0.40;;;;;;;;;;5382780;25;85120;-45
2024/04/25 10:53:00;;;;;;;0.20;0.10;;;;;;;;;;5386222;26;85778;-47
2024/04/25 10:55:26;;;;;;;2.90;0.20;;;;;;;;;;5396609;26;85118;-42
2024/04/25 10:57:51;;;;;;;0.30;0.20;;;;;;;;;;5389212;26;84650;-44
2024/04/25 11:00:16;;;;;;;0.30;0.30;;;;;;;;;;5382101;26;87652;-44
2024/04/25 11:02:41;;;;;;;9.60;1.30;;;;;;;;;;5379834;26;85401;-43
2024/04/25 11:05:07;;;;;;;9.27;3.00;;;;;;;;;;5388416;25;87418;-43
2024/04/25 11:07:32;;;;;;;19.43;3.50;;;;;;;;;;5375084;26;87073;-45
2024/04/25 11:09:57;;;;;;;7.53;2.55;;;;;;;;;;5381735;26;85152;-46
2024/04/25 11:12:23;;;;;;;10.23;2.65;;;;;;;;;;5393301;26;86512;-43
2024/04/25 11:14:48;;;;;;;7.17;2.93;;;;;;;;;;5385797;26;88425;-44
2024/04/25 11:17:14;;;;;;;6.80;2.63;;;;;;;;;;5385810;26;85226;-44
2024/04/25 11:19:40;;;;;;;4.20;1.40;;;;;;;;;;5381754;26;85100;-46
2024/04/25 11:22:05;;;;;;;1.97;1.37;;;;;;;;;;5385270;26;84944;-43
2024/04/25 11:24:31;;;;;;;7.63;1.53;;;;;;;;;;5386593;26;85132;-43
2024/04/25 11:27:00;;;;;;;9.48;1.85;;;;;;;;;;5388546;26;85598;-45
2024/04/25 11:29:26;;;;;;;2.42;1.25;;;;;;;;;;5383283;26;86138;-46
2024/04/25 11:31:51;;;;;;;9.23;1.30;;;;;;;;;;5385314;26;86411;-43
2024/04/25 11:34:18;;;;;;;4.07;1.33;;;;;;;;;;5392228;26;85046;-47
2024/04/25 11:36:43;;;;;;;3.15;0.85;;;;;;;;;;5384912;26;85554;-43
2024/04/25 11:39:13;;;;;;;2.60;0.87;;;;;;;;;;5385236;25;85368;-48
2024/04/25 11:41:40;;;;;;;7.60;1.03;;;;;;;;;;5384661;26;85753;-46
2024/04/25 11:44:06;;;;;;;0.73;0.57;;;;;;;;;;5387595;26;85526;-47
2024/04/25 11:46:32;;;;;;;3.13;1.10;;;;;;;;;;5401022;25;85292;-44
2024/04/25 11:49:00;;;;;;;1.87;0.67;;;;;;;;;;5443334;25;85425;-44
2024/04/25 11:51:26;;;;;;;2.95;0.75;;;;;;;;;;5378223;26;87163;-46
2024/04/25 11:53:51;;;;;;;1.40;1.00;;;;;;;;;;5372194;26;87037;-43
2024/04/25 11:56:16;;;;;;;1.60;0.80;;;;;;;;;;5378846;26;85215;-45
2024/04/25 11:58:41;;;;;;;0.53;0.53;;;;;;;;;;5378121;26;85681;-44
2024/04/25 12:01:07;;;;;;;6.67;1.33;;;;;;;;;;5377293;26;86639;-45
2024/04/25 12:03:32;;;;;;;4.03;0.63;;;;;;;;;;5381157;26;85184;-44
2024/04/25 12:05:58;;;;;;;1.70;0.80;;;;;;;;;;5406347;26;84912;-46
2024/04/25 12:08:23;;;;;;;5.70;0.60;;;;;;;;;;5399943;26;85354;-46
2024/04/25 12:10:50;;;;;;;1.30;0.80;;;;;;;;;;5388942;25;86516;-43
2024/04/25 12:13:16;;;;;;;4.68;1.10;;;;;;;;;;5398737;25;86182;-44
2024/04/25 12:15:41;;;;;;;1.20;0.28;;;;;;;;;;5387011;26;85776;-45
2024/04/25 12:18:07;;;;;;;2.00;0.85;;;;;;;;;;5382712;25;86651;-44
2024/04/25 12:20:32;;;;;;;6.55;0.75;;;;;;;;;;5383462;26;86782;-45
2024/04/25 12:22:57;;;;;;;0.80;0.80;;;;;;;;;;5404819;26;85065;-46
2024/04/25 12:25:23;;;;;;;0.77;0.40;;;;;;;;;;5391943;26;85100;-42
2024/04/25 12:27:48;;;;;;;0.83;0.33;;;;;;;;;;5401312;25;85825;-46
2024/04/25 12:30:14;;;;;;;3.50;0.77;;;;;;;;;;5382820;26;85723;-42
2024/04/25 12:32:39;;;;;;;5.80;0.67;;;;;;;;;;5389841;26;85589;-43
2024/04/25 12:35:04;;;;;;;1.90;0.50;;;;;;;;;;5383639;26;84733;-44
2024/04/25 12:37:29;;;;;;;1.50;0.80;;;;;;;;;;5384336;26;85417;-44
2024/04/25 12:39:55;;;;;;;0.30;0.30;;;;;;;;;;5371177;26;86049;-45
2024/04/25 12:42:22;;;;;;;0.43;0.43;;;;;;;;;;5382400;26;86634;-44
2024/04/25 12:44:49;;;;;;;1.98;0.57;;;;;;;;;;5378613;26;85235;-46
2024/04/25 12:47:15;;;;;;;2.43;0.57;;;;;;;;;;5395526;26;86018;-44
2024/04/25 12:49:40;;;;;;;0.80;0.30;;;;;;;;;;5382216;26;85280;-45
2024/04/25 12:52:06;;;;;;;1.30;0.50;;;;;;;;;;5395256;26;85442;-42
2024/04/25 12:54:31;;;;;;;2.63;1.15;;;;;;;;;;5383403;26;85157;-45
2024/04/25 12:56:56;;;;;;;0.77;0.67;;;;;;;;;;5390615;26;85178;-43
2024/04/25 12:59:22;;;;;;;0.70;0.60;;;;;;;;;;5380611;26;84899;-46
2024/04/25 13:01:47;;;;;;;0.30;0.30;;;;;;;;;;5385832;26;85312;-41
2024/04/25 13:04:12;;;;;;;0.50;0.50;;;;;;;;;;5394413;26;85761;-44
2024/04/25 13:06:39;;;;;;;0.67;0.57;;;;;;;;;;5372165;26;86005;-47
2024/04/25 13:09:04;;;;;;;0.60;0.60;;;;;;;;;;5386928;26;84991;-43
2024/04/25 13:11:29;;;;;;;1.73;0.60;;;;;;;;;;5374770;26;85228;-45
2024/04/25 13:13:54;;;;;;;2.20;0.33;;;;;;;;;;5384915;26;85403;-42
2024/04/25 13:16:19;;;;;;;0.60;0.47;;;;;;;;;;5386881;26;85525;-44
2024/04/25 13:18:45;;;;;;;1.50;0.30;;;;;;;;;;5395714;25;85664;-42
2024/04/25 13:21:10;;;;;;;0.80;0.50;;;;;;;;;;5381721;26;85019;-43
2024/04/25 13:23:35;;;;;;;0.98;0.70;;;;;;;;;;5381279;26;84359;-43
2024/04/25 13:26:00;;;;;;;0.87;0.63;;;;;;;;;;5388227;26;85711;-42
2024/04/25 13:28:26;;;;;;;3.47;0.57;;;;;;;;;;5374753;26;85903;-46
2024/04/25 13:30:51;;;;;;;5.60;0.40;;;;;;;;;;5379099;26;89343;-44
2024/04/25 13:33:16;;;;;;;5.90;0.50;;;;;;;;;;5371472;26;85137;-42
2024/04/25 13:35:41;;;;;;;0.30;0.20;;;;;;;;;;5380518;26;85625;-44
2024/04/25 13:38:08;;;;;;;1.10;0.57;;;;;;;;;;5384797;26;85530;-43
2024/04/25 13:40:34;;;;;;;2.00;0.20;;;;;;;;;;5390641;26;85917;-42
2024/04/25 13:42:59;;;;;;;1.40;0.60;;;;;;;;;;5384197;26;85054;-43
2024/04/25 13:45:24;;;;;;;0.37;0.10;;;;;;;;;;5370551;26;86140;-42
2024/04/25 13:47:49;;;;;;;0.20;0.20;;;;;;;;;;5379954;26;85316;-43
2024/04/25 13:50:16;;;;;;;0.60;0.37;;;;;;;;;;5382526;26;86054;-42
2024/04/25 13:52:41;;;;;;;0.50;0.38;;;;;;;;;;5395226;25;85163;-42
2024/04/25 13:55:07;;;;;;;0.30;0.30;;;;;;;;;;5384788;26;86696;-42
2024/04/25 13:57:32;;;;;;;0.80;0.60;;;;;;;;;;5374903;26;85689;-42
2024/04/25 13:59:57;;;;;;;0.40;0.40;;;;;;;;;;5383891;25;86296;-43
2024/04/25 14:02:22;;;;;;;0.30;0.10;;;;;;;;;;5387420;26;85171;-42
2024/04/25 14:04:47;;;;;;;3.07;0.47;;;;;;;;;;5384144;26;85783;-44
2024/04/25 14:07:13;;;;;;;0.20;0.20;;;;;;;;;;5382699;26;85448;-42
2024/04/25 14:09:41;;;;;;;0.50;0.30;;;;;;;;;;5388488;25;85230;-45
2024/04/25 14:12:06;;;;;;;0.25;0.20;;;;;;;;;;5379470;26;84977;-44
2024/04/25 14:14:31;;;;;;;0.10;0.10;;;;;;;;;;5393963;26;85116;-45
2024/04/25 14:16:57;;;;;;;3.27;1.83;;;;;;;;;;5391957;26;86679;-45
2024/04/25 14:19:22;;;;;;;6.03;4.00;;;;;;;;;;5387604;26;86165;-44
2024/04/25 14:21:48;;;;;;;6.28;3.67;;;;;;;;;;5383084;26;85246;-46
2024/04/25 14:24:16;;;;;;;3.17;2.38;;;;;;;;;;5390465;26;85265;-44
2024/04/25 14:29:29;;;;;;;6.20;3.20;;;;;;;;;;5392275;26;87421;-44
2024/04/25 14:31:54;;;;;;;5.37;3.17;;;;;;;;;;5376038;26;85056;-44
2024/04/25 14:34:19;;;;;;;7.60;3.50;;;;;;;;;;5389682;26;85686;-44
2024/04/25 14:36:44;;;;;;;2.63;2.00;;;;;;;;;;5379736;26;84692;-45
2024/04/25 14:39:10;;;;;;;7.28;2.72;;;;;;;;;;5380403;26;85677;-44
2024/04/25 14:41:35;;;;;;;5.38;2.90;;;;;;;;;;5386579;26;85663;-48